Time;durP1;ratioP1;P1;durP2;ratioP2;P2;SDS_P1;SDS_P2;PMS_P1;PMS_P2;Temp;Humidity;BMP_temperature;BMP_pressure;BME280_temperature;BME280_humidity;BME280_pressure;Samples;Min_cycle;Max_cycle;Signal;HPM_P1;HPM_P2
2021/12/15 00:02:24;;;;;;;75.53;40.47;;;;;;;7.24;100.00;101946.66;5158483;23;20039;-60
2021/12/15 00:04:54;;;;;;;73.18;39.40;;;;;;;7.28;100.00;101953.53;5053155;28;20049;-59
2021/12/15 00:07:24;;;;;;;72.85;38.92;;;;;;;7.30;100.00;101948.28;5071628;28;20595;-60
2021/12/15 00:09:51;;;;;;;78.28;40.97;;;;;;;7.24;100.00;101948.41;5057985;28;20072;-60
2021/12/15 00:12:19;;;;;;;77.38;40.55;;;;;;;7.27;100.00;101941.34;5066174;28;20069;-60
2021/12/15 00:14:46;;;;;;;71.68;37.58;;;;;;;7.29;100.00;101944.78;5067538;28;20140;-61
2021/12/15 00:17:15;;;;;;;81.70;41.42;;;;;;;7.28;100.00;101944.81;5072246;28;20464;-61
2021/12/15 00:19:43;;;;;;;77.90;41.33;;;;;;;7.30;100.00;101943.03;5065102;28;20056;-61
2021/12/15 00:22:11;;;;;;;77.05;40.38;;;;;;;7.31;100.00;101944.75;5069839;28;20052;-61
2021/12/15 00:24:38;;;;;;;81.82;41.53;;;;;;;7.30;100.00;101951.75;5063588;28;20048;-60
2021/12/15 00:27:05;;;;;;;78.25;41.00;;;;;;;7.30;100.00;101937.81;5067508;28;20044;-60
2021/12/15 00:29:32;;;;;;;70.70;38.00;;;;;;;7.40;100.00;101943.69;5065723;28;20052;-60
2021/12/15 00:32:03;;;;;;;74.18;39.50;;;;;;;7.33;100.00;101942.94;5071566;28;20044;-61
2021/12/15 00:34:34;;;;;;;74.18;39.35;;;;;;;7.27;100.00;101941.34;5065988;28;20131;-61
2021/12/15 00:37:01;;;;;;;74.80;38.03;;;;;;;7.26;100.00;101937.00;5067670;28;20123;-61
2021/12/15 00:39:29;;;;;;;74.68;37.60;;;;;;;7.25;100.00;101937.03;5056034;28;20053;-61
2021/12/15 00:41:57;;;;;;;71.32;38.78;;;;;;;7.28;100.00;101942.22;5055683;28;21036;-60
2021/12/15 00:44:25;;;;;;;71.85;40.78;;;;;;;7.32;100.00;101949.94;5068254;28;20063;-61
2021/12/15 00:46:52;;;;;;;68.85;38.42;;;;;;;7.25;100.00;101932.69;5061595;28;20816;-59
2021/12/15 00:49:22;;;;;;;70.03;36.95;;;;;;;7.28;100.00;101944.81;5067027;28;20140;-59
2021/12/15 00:51:50;;;;;;;69.47;37.30;;;;;;;7.30;100.00;101950.91;5064669;28;20063;-61
2021/12/15 00:54:18;;;;;;;73.25;37.53;;;;;;;7.31;100.00;101950.84;5061798;28;20114;-60
2021/12/15 00:56:45;;;;;;;67.53;36.55;;;;;;;7.36;100.00;101958.59;5061752;28;20052;-61
2021/12/15 00:59:13;;;;;;;72.53;38.60;;;;;;;7.31;100.00;101950.84;5064801;28;20091;-60
2021/12/15 01:01:41;;;;;;;70.63;38.15;;;;;;;7.29;100.00;101959.63;5068716;28;20219;-59
2021/12/15 01:04:11;;;;;;;67.57;34.83;;;;;;;7.33;100.00;101961.28;5065378;28;20048;-60
2021/12/15 01:06:41;;;;;;;73.03;36.55;;;;;;;7.36;100.00;101958.59;5068153;28;20147;-61
2021/12/15 01:09:16;;;;;;;67.97;36.53;;;;;;;7.29;100.00;101957.88;5063183;28;20068;-60
2021/12/15 01:20:18;;;;;;;73.00;37.90;;;;;;;7.28;100.00;101971.88;5065657;28;20083;-61
2021/12/15 01:22:48;;;;;;;73.22;38.10;;;;;;;7.25;100.00;101974.59;5059326;28;20133;-60
2021/12/15 01:25:20;;;;;;;79.65;39.05;;;;;;;7.25;100.00;101973.69;5061183;28;20524;-60
2021/12/15 01:27:48;;;;;;;78.25;39.10;;;;;;;7.27;100.00;101977.16;5068255;28;20487;-60
2021/12/15 01:30:19;;;;;;;76.68;38.28;;;;;;;7.31;100.00;101976.19;5065457;28;20071;-59
2021/12/15 01:32:46;;;;;;;81.18;37.45;;;;;;;7.28;100.00;101976.25;5071484;28;20048;-60
2021/12/15 01:35:15;;;;;;;69.32;37.45;;;;;;;7.22;100.00;101981.66;5065560;28;20063;-60
2021/12/15 01:37:42;;;;;;;83.57;39.15;;;;;;;7.20;100.00;101986.03;5067553;28;20048;-61
2021/12/15 01:40:18;;;;;;;79.10;39.60;;;;;;;7.22;100.00;101976.41;5056665;28;20584;-60
2021/12/15 01:42:45;;;;;;;71.93;37.63;;;;;;;7.21;100.00;101979.94;5064799;28;20052;-61
2021/12/15 01:48:09;;;;;;;74.63;37.40;;;;;;;7.23;100.00;101968.50;5068636;28;20537;-59
2021/12/15 01:50:37;;;;;;;72.25;35.38;;;;;;;7.33;100.00;101974.38;5061698;28;20589;-60
2021/12/15 01:53:06;;;;;;;69.68;36.30;;;;;;;7.25;100.00;101973.69;5068237;28;20054;-59
2021/12/15 01:55:33;;;;;;;74.32;36.92;;;;;;;7.20;100.00;101975.56;5064374;28;20412;-60
2021/12/15 01:58:01;;;;;;;76.70;36.95;;;;;;;7.24;100.00;101974.59;5064961;28;20511;-61
2021/12/15 02:00:29;;;;;;;72.60;36.40;;;;;;;7.23;100.00;101975.50;5060468;28;20049;-61
2021/12/15 02:02:57;;;;;;;76.95;37.95;;;;;;;7.26;100.00;101975.44;5072188;28;20131;-59
2021/12/15 02:05:26;;;;;;;63.45;35.08;;;;;;;7.22;100.00;101976.41;5061372;28;20093;-62
2021/12/15 02:07:54;;;;;;;70.28;35.15;;;;;;;7.21;100.00;101969.47;5067420;28;20056;-60
2021/12/15 02:10:25;;;;;;;65.47;36.05;;;;;;;7.25;100.00;101969.34;5050769;28;20132;-59
2021/12/15 02:12:58;;;;;;;67.25;35.92;;;;;;;7.24;100.00;101959.75;5059811;28;20049;-60
2021/12/15 02:15:32;;;;;;;65.93;34.45;;;;;;;7.26;100.00;101962.34;5069258;28;20136;-60
2021/12/15 02:18:00;;;;;;;64.38;33.50;;;;;;;7.28;100.00;101957.91;5070576;28;20052;-60
2021/12/15 02:20:31;;;;;;;67.90;35.42;;;;;;;7.31;100.00;101957.84;5063305;28;20051;-60
2021/12/15 02:22:58;;;;;;;62.40;34.35;;;;;;;7.32;100.00;101954.34;5067175;28;20040;-60
2021/12/15 02:25:25;;;;;;;64.18;35.83;;;;;;;7.33;100.00;101958.66;5063347;28;20098;-59
2021/12/15 02:27:53;;;;;;;61.80;34.65;;;;;;;7.35;100.00;101962.13;5067053;28;20056;-60
2021/12/15 02:30:51;;;;;;;61.05;33.13;;;;;;;7.47;100.00;101964.44;5066283;28;20045;-61
2021/12/15 02:38:42;;;;;;;59.70;31.33;;;;;;;7.41;100.00;101954.09;5062918;28;20055;-58
2021/12/15 02:41:19;;;;;;;57.30;30.63;;;;;;;7.44;100.00;101956.66;5063244;28;20049;-58
2021/12/15 02:43:51;;;;;;;55.97;30.58;;;;;;;7.36;100.00;101958.59;5064020;28;20094;-60
2021/12/15 02:46:20;;;;;;;55.15;31.15;;;;;;;7.34;100.00;101961.28;5067992;28;20036;-62
2021/12/15 02:48:49;;;;;;;55.53;31.42;;;;;;;7.38;100.00;101969.03;5060540;28;20052;-61
2021/12/15 02:51:18;;;;;;;54.97;30.05;;;;;;;7.39;100.00;101968.16;5063973;28;20061;-61
2021/12/15 02:53:46;;;;;;;59.10;31.85;;;;;;;7.36;100.00;101974.31;5068307;28;20048;-60
2021/12/15 02:56:14;;;;;;;58.83;31.33;;;;;;;7.36;100.00;101971.69;5066011;28;20050;-61
2021/12/15 02:59:20;;;;;;;53.83;31.08;;;;;;;7.41;100.00;101982.94;5061879;28;20056;-61
2021/12/15 03:02:05;;;;;;;53.53;29.10;;;;;;;7.42;100.00;101979.41;5066996;28;20079;-62
2021/12/15 03:04:46;;;;;;;51.33;29.58;;;;;;;7.40;100.00;101983.84;5058836;28;20052;-62
2021/12/15 03:07:25;;;;;;;54.60;28.95;;;;;;;7.36;100.00;101975.19;5062715;28;20124;-60
2021/12/15 03:15:36;;;;;;;51.70;28.40;;;;;;;7.42;100.00;101978.53;5061701;28;19930;-61
2021/12/15 03:18:06;;;;;;;50.88;28.85;;;;;;;7.41;100.00;101977.69;5060073;28;20053;-62
2021/12/15 03:20:42;;;;;;;56.85;29.58;;;;;;;7.38;100.00;101975.13;5055592;28;20128;-60
2021/12/15 03:23:09;;;;;;;;;;;;;;;7.41;100.00;101969.81;5063262;28;20057;-61
2021/12/15 03:25:37;;;;;;;51.40;28.45;;;;;;;7.43;100.00;101975.03;5062260;28;19920;-62
2021/12/15 03:33:55;;;;;;;;;;;;;;;7.42;100.00;101971.53;5062406;28;21105;-62
2021/12/15 03:36:39;;;;;;;46.85;27.67;;;;;;;7.45;100.00;101968.00;5062747;28;20011;-60
2021/12/15 03:39:09;;;;;;;54.42;29.20;;;;;;;7.49;100.00;101970.50;5062773;28;20567;-62
2021/12/15 03:41:37;;;;;;;52.30;28.20;;;;;;;7.50;100.00;101966.97;5064990;28;20044;-61
2021/12/15 03:44:05;;;;;;;53.85;27.67;;;;;;;7.55;100.00;101972.09;5063508;28;20052;-62
2021/12/15 03:46:33;;;;;;;55.50;29.17;;;;;;;7.49;100.00;101967.03;5065357;28;20593;-63
2021/12/15 03:49:00;;;;;;;52.97;30.77;;;;;;;7.45;100.00;101962.75;5072540;28;20048;-62
2021/12/15 03:51:28;;;;;;;49.25;28.10;;;;;;;7.49;100.00;101970.50;5067649;28;20520;-61
2021/12/15 03:53:55;;;;;;;51.58;29.20;;;;;;;7.45;100.00;101968.00;5068758;28;20045;-62
2021/12/15 03:56:22;;;;;;;55.85;30.50;;;;;;;7.46;100.00;101965.34;5068406;28;20053;-60
2021/12/15 03:58:50;;;;;;;50.97;29.08;;;;;;;7.42;100.00;101958.44;5072715;28;20063;-59
2021/12/15 04:01:20;;;;;;;53.17;30.50;;;;;;;7.41;100.00;101948.00;5064637;28;20052;-60
2021/12/15 04:03:53;;;;;;;52.10;31.17;;;;;;;7.42;100.00;101960.22;5058766;28;20152;-62
2021/12/15 04:06:26;;;;;;;48.90;28.83;;;;;;;7.43;100.00;101954.94;5051582;28;20067;-62
2021/12/15 04:08:55;;;;;;;52.30;29.88;;;;;;;7.54;100.00;101959.91;5069268;28;20094;-59
2021/12/15 04:11:24;;;;;;;45.78;27.92;;;;;;;7.47;100.00;101955.72;5063791;28;20055;-63
2021/12/15 04:13:52;;;;;;;50.67;29.27;;;;;;;7.54;100.00;101960.78;5069014;28;20678;-61
2021/12/15 04:16:59;;;;;;;49.30;28.92;;;;;;;7.49;100.00;101961.78;5067683;28;20056;-62
2021/12/15 04:19:16;;;;;;;46.63;27.30;;;;;;;7.47;100.00;101960.94;5061265;28;20048;-62
2021/12/15 04:21:44;;;;;;;51.75;29.00;;;;;;;7.44;100.00;101963.66;5069225;28;20127;-60
2021/12/15 04:24:13;;;;;;;49.33;28.50;;;;;;;7.44;100.00;101969.75;5065969;28;20040;-58
2021/12/15 04:26:41;;;;;;;47.95;29.70;;;;;;;7.43;100.00;101977.63;5070871;28;20040;-61
2021/12/15 04:29:09;;;;;;;49.10;27.83;;;;;;;7.44;100.00;101969.75;5066883;28;20058;-60
2021/12/15 04:31:40;;;;;;;46.83;27.50;;;;;;;7.44;100.00;101969.75;5066225;28;20098;-61
2021/12/15 04:34:10;;;;;;;48.45;28.10;;;;;;;7.42;100.00;101966.31;5066074;28;20048;-60
2021/12/15 04:36:47;;;;;;;50.13;28.42;;;;;;;7.45;100.00;101965.38;5067009;28;20132;-59
2021/12/15 04:39:17;;;;;;;50.20;29.35;;;;;;;7.45;100.00;101974.09;5057106;28;20067;-57
2021/12/15 04:41:48;;;;;;;46.58;27.42;;;;;;;7.46;100.00;101967.09;5070565;28;20143;-61
2021/12/15 04:44:17;;;;;;;46.05;27.48;;;;;;;7.49;100.00;101967.03;5067317;28;20563;-59
2021/12/15 04:47:00;;;;;;;45.17;26.52;;;;;;;7.50;100.00;101963.50;5066927;28;20037;-60
2021/12/15 04:49:32;;;;;;;43.75;27.08;;;;;;;7.47;100.00;101974.91;5064526;28;20045;-59
2021/12/15 04:52:00;;;;;;;42.83;27.58;;;;;;;7.50;100.00;101980.09;5066351;28;20079;-60
2021/12/15 04:54:28;;;;;;;42.38;25.58;;;;;;;7.45;100.00;101987.19;5068013;28;20063;-61
2021/12/15 04:56:56;;;;;;;48.88;27.30;;;;;;;7.43;100.00;101993.34;5066484;28;20048;-60
2021/12/15 04:59:23;;;;;;;44.22;25.08;;;;;;;7.40;100.00;101994.31;5065930;28;20179;-60
2021/12/15 05:01:51;;;;;;;43.20;26.17;;;;;;;7.46;100.00;101988.91;5059007;28;20076;-60
2021/12/15 05:04:18;;;;;;;44.50;24.88;;;;;;;7.46;100.00;101988.06;5065500;28;20048;-60
2021/12/15 05:06:46;;;;;;;46.55;26.70;;;;;;;7.49;100.00;101998.47;5062532;28;20048;-60
2021/12/15 05:09:14;;;;;;;41.40;26.00;;;;;;;7.53;100.00;102005.38;5064930;28;20586;-60
2021/12/15 05:11:41;;;;;;;45.97;27.00;;;;;;;7.47;100.00;102008.97;5058429;28;20044;-59
2021/12/15 05:14:08;;;;;;;41.85;23.88;;;;;;;7.54;100.00;102009.69;5062676;28;20131;-58
2021/12/15 05:16:35;;;;;;;45.97;25.77;;;;;;;7.51;100.00;102004.53;5064165;28;20622;-60
2021/12/15 05:19:03;;;;;;;43.05;25.48;;;;;;;7.50;100.00;102001.03;5067266;28;20059;-58
2021/12/15 05:21:31;;;;;;;43.85;26.60;;;;;;;7.47;100.00;102008.97;5057099;28;20424;-60
2021/12/15 05:24:02;;;;;;;45.72;26.83;;;;;;;7.44;100.00;102006.44;5062814;28;20052;-60
2021/12/15 05:26:30;;;;;;;43.70;25.63;;;;;;;7.54;100.00;102010.56;5056977;28;20044;-60
2021/12/15 05:28:57;;;;;;;43.47;25.73;;;;;;;7.51;100.00;102012.38;5062213;28;20059;-59
2021/12/15 05:31:25;;;;;;;46.42;25.95;;;;;;;7.49;100.00;102012.44;5056864;28;20056;-59
2021/12/15 05:33:52;;;;;;;45.90;25.88;;;;;;;7.46;100.00;102024.75;5057470;28;20048;-61
2021/12/15 05:36:19;;;;;;;45.88;27.83;;;;;;;7.45;100.00;102018.63;5064003;28;20404;-61
2021/12/15 05:38:47;;;;;;;42.58;26.92;;;;;;;7.50;100.00;102018.53;5064545;28;20056;-60
2021/12/15 05:41:15;;;;;;;47.05;27.70;;;;;;;7.46;100.00;102014.25;5062627;28;20052;-60
2021/12/15 05:43:42;;;;;;;41.33;25.25;;;;;;;7.55;100.00;102012.28;5067689;28;20131;-60
2021/12/15 05:46:10;;;;;;;44.15;27.30;;;;;;;7.58;100.00;102016.59;5065090;28;20048;-60
2021/12/15 05:48:37;;;;;;;42.13;25.38;;;;;;;7.54;100.00;102015.81;5069669;28;20068;-60
2021/12/15 05:51:07;;;;;;;45.10;26.15;;;;;;;7.54;100.00;102021.03;5067956;28;20130;-59
2021/12/15 05:53:34;;;;;;;47.90;26.55;;;;;;;7.46;100.00;102016.88;5064337;28;21214;-60
2021/12/15 05:56:01;;;;;;;47.33;26.25;;;;;;;7.42;100.00;102021.31;5056659;28;20049;-58
2021/12/15 05:58:31;;;;;;;50.17;27.95;;;;;;;7.38;100.00;102014.44;5065709;28;20068;-58
2021/12/15 06:00:58;;;;;;;45.47;25.92;;;;;;;7.37;100.00;102028.44;5064649;28;20535;-59
2021/12/15 06:03:26;;;;;;;47.33;27.70;;;;;;;7.41;100.00;102026.59;5071380;28;20102;-61
2021/12/15 06:05:53;;;;;;;51.60;28.42;;;;;;;7.46;100.00;102028.22;5041059;28;20056;-61
2021/12/15 06:08:20;;;;;;;53.78;28.80;;;;;;;7.46;100.00;102025.59;5049472;28;21094;-61
2021/12/15 06:10:47;;;;;;;48.90;27.90;;;;;;;7.43;100.00;102030.94;5062744;28;20525;-61
2021/12/15 06:13:15;;;;;;;47.83;28.25;;;;;;;7.46;100.00;102036.06;5064317;28;20509;-59
2021/12/15 06:15:44;;;;;;;48.05;27.70;;;;;;;7.43;100.00;102033.56;5061125;28;20052;-61
2021/12/15 06:18:17;;;;;;;49.35;28.63;;;;;;;7.51;100.00;102041.22;5067462;28;20048;-60
2021/12/15 06:20:46;;;;;;;48.70;28.00;;;;;;;7.48;100.00;102038.69;5063444;28;20067;-61
2021/12/15 06:23:20;;;;;;;50.50;29.75;;;;;;;7.48;100.00;102033.44;5058552;28;20048;-60
2021/12/15 06:26:08;;;;;;;50.00;28.83;;;;;;;7.50;100.00;102042.13;5062937;28;20052;-61
2021/12/15 06:28:37;;;;;;;48.53;27.30;;;;;;;7.48;100.00;102036.91;5062974;28;20053;-62
2021/12/15 06:31:07;;;;;;;46.88;27.67;;;;;;;7.53;100.00;102036.81;5063691;28;20068;-60
2021/12/15 06:33:36;;;;;;;48.72;28.92;;;;;;;7.48;100.00;102031.69;5064767;28;20063;-60
2021/12/15 06:36:05;;;;;;;46.38;28.25;;;;;;;7.46;100.00;102038.69;5062792;28;20044;-62
2021/12/15 06:38:36;;;;;;;45.28;26.38;;;;;;;7.47;100.00;102040.41;5070792;28;20136;-61
2021/12/15 06:41:05;;;;;;;41.30;24.17;;;;;;;7.44;100.00;102035.25;5062177;28;20060;-60
2021/12/15 06:43:34;;;;;;;46.40;27.17;;;;;;;7.43;100.00;102035.28;5069673;28;20070;-61
2021/12/15 06:59:37;;;;;;;44.58;26.10;;;;;;;7.47;100.00;102037.78;5061369;28;20048;-59
2021/12/15 07:02:05;;;;;;;42.75;26.15;;;;;;;7.49;100.00;102046.50;5077576;28;20048;-59
2021/12/15 07:04:32;;;;;;;42.15;25.52;;;;;;;7.52;100.00;102033.34;5062623;28;20159;-60
2021/12/15 07:07:00;;;;;;;41.72;25.70;;;;;;;7.55;100.00;102035.84;5070702;28;20423;-60
2021/12/15 07:09:27;;;;;;;43.53;25.10;;;;;;;7.45;100.00;102036.13;5064048;28;20066;-60
2021/12/15 07:11:54;;;;;;;42.85;25.55;;;;;;;7.42;100.00;102039.66;5071025;28;20048;-61
2021/12/15 07:14:21;;;;;;;44.35;25.42;;;;;;;7.44;100.00;102048.38;5063218;28;20580;-59
2021/12/15 07:16:51;;;;;;;40.55;24.90;;;;;;;7.43;100.00;102064.09;5068759;28;20123;-60
2021/12/15 07:22:10;;;;;;;39.72;24.50;;;;;;;7.45;100.00;102070.19;5066555;28;20056;-60
2021/12/15 07:24:38;;;;;;;45.95;24.88;;;;;;;7.43;100.00;102065.00;5075447;28;20080;-59
2021/12/15 07:27:06;;;;;;;41.13;24.70;;;;;;;7.39;100.00;102065.09;5070657;28;20128;-58
2021/12/15 07:29:35;;;;;;;43.75;25.05;;;;;;;7.42;100.00;102075.47;5075316;28;20088;-60
2021/12/15 07:32:03;;;;;;;41.60;25.05;;;;;;;7.45;100.00;102064.94;5068487;28;20055;-60
2021/12/15 07:34:31;;;;;;;42.08;24.75;;;;;;;7.45;100.00;102068.41;5072589;28;20052;-61
2021/12/15 07:36:58;;;;;;;42.22;24.98;;;;;;;7.47;100.00;102078.84;5074947;28;20552;-60
2021/12/15 07:39:25;;;;;;;40.97;25.02;;;;;;;7.43;100.00;102070.22;5075344;28;20147;-59
2021/12/15 07:42:02;;;;;;;37.28;23.23;;;;;;;7.49;100.00;102077.94;5076023;28;20049;-61
2021/12/15 07:44:30;;;;;;;38.33;24.67;;;;;;;7.46;100.00;102075.38;5076523;28;20397;-60
2021/12/15 07:46:57;;;;;;;37.45;23.90;;;;;;;7.49;100.00;102077.09;5073022;28;20101;-60
2021/12/15 07:49:25;;;;;;;36.85;24.92;;;;;;;7.50;100.00;102077.03;5071306;28;20484;-60
2021/12/15 07:52:00;;;;;;;34.45;21.98;;;;;;;7.49;100.00;102072.69;5079606;28;20060;-61
2021/12/15 07:54:29;;;;;;;42.40;25.70;;;;;;;7.49;100.00;102080.56;5070805;28;20155;-60
2021/12/15 07:56:56;;;;;;;41.22;24.15;;;;;;;7.53;100.00;102068.25;5070268;28;20139;-58
2021/12/15 07:59:24;;;;;;;36.85;22.23;;;;;;;7.59;100.00;102073.34;5068105;28;20048;-60
2021/12/15 08:01:51;;;;;;;42.85;24.42;;;;;;;7.55;100.00;102082.16;5073765;28;20550;-60
2021/12/15 08:04:19;;;;;;;37.65;23.13;;;;;;;7.59;100.00;102089.94;5065980;28;20152;-60
2021/12/15 08:06:46;;;;;;;39.85;23.80;;;;;;;7.59;100.00;102078.59;5072664;28;20075;-58
2021/12/15 08:09:14;;;;;;;39.38;25.27;;;;;;;7.60;100.00;102081.16;5064550;28;20043;-58
2021/12/15 08:11:41;;;;;;;40.70;24.67;;;;;;;7.66;100.00;102084.56;5075553;28;20056;-60
2021/12/15 08:14:09;;;;;;;42.22;23.83;;;;;;;7.67;100.00;102081.03;5065659;28;20056;-59
2021/12/15 08:16:36;;;;;;;38.95;24.00;;;;;;;7.67;100.00;102078.41;5075588;28;20118;-59
2021/12/15 08:19:04;;;;;;;37.38;24.42;;;;;;;7.65;100.00;102085.44;5070997;28;20075;-61
2021/12/15 08:21:32;;;;;;;34.20;22.75;;;;;;;7.69;100.00;102090.56;5075240;28;20052;-59
2021/12/15 08:23:59;;;;;;;36.03;22.80;;;;;;;7.77;100.00;102091.25;5071705;28;20059;-59
2021/12/15 08:26:26;;;;;;;36.05;23.00;;;;;;;7.73;100.00;102088.75;5069157;28;20455;-60
2021/12/15 08:28:54;;;;;;;37.90;22.88;;;;;;;7.76;100.00;102096.53;5072644;28;20140;-61
2021/12/15 08:31:22;;;;;;;34.33;19.95;;;;;;;7.77;100.00;102093.03;5071007;28;20420;-61
2021/12/15 08:33:49;;;;;;;29.92;20.55;;;;;;;7.76;100.00;102091.31;5071495;28;20136;-60
2021/12/15 08:36:17;;;;;;;33.70;21.55;;;;;;;7.79;100.00;102099.06;5072407;28;20512;-60
2021/12/15 08:38:46;;;;;;;34.67;21.48;;;;;;;7.81;100.00;102099.91;5077103;28;20110;-60
2021/12/15 08:41:17;;;;;;;35.33;20.98;;;;;;;7.85;100.00;102110.28;5064012;28;20517;-60
2021/12/15 08:43:44;;;;;;;34.20;20.73;;;;;;;7.82;100.00;102104.25;5077185;28;20056;-60
2021/12/15 08:46:19;;;;;;;32.08;20.77;;;;;;;7.84;100.00;102107.72;5069828;28;20127;-61
2021/12/15 08:48:48;;;;;;;31.35;19.73;;;;;;;7.87;100.00;102105.84;5068722;28;20149;-60
2021/12/15 08:51:17;;;;;;;33.97;21.02;;;;;;;7.97;100.00;102101.28;5066751;28;20083;-61
2021/12/15 08:53:45;;;;;;;50.42;33.05;;;;;;;8.06;100.00;102102.78;5074608;28;20059;-60
2021/12/15 08:56:13;;;;;;;41.08;23.67;;;;;;;8.18;100.00;102110.34;5078182;28;20051;-61
2021/12/15 08:58:40;;;;;;;35.63;22.40;;;;;;;8.25;100.00;102108.47;5074633;28;20396;-58
2021/12/15 09:01:08;;;;;;;36.33;23.73;;;;;;;8.12;100.00;102106.13;5076346;28;20083;-58
2021/12/15 09:03:36;;;;;;;37.92;23.77;;;;;;;8.10;100.00;102104.44;5070993;28;20064;-61
2021/12/15 09:06:03;;;;;;;38.30;24.27;;;;;;;8.17;100.00;102113.03;5066077;28;20135;-58
2021/12/15 09:08:31;;;;;;;33.78;21.67;;;;;;;8.22;100.00;102106.75;5069486;28;20584;-59
2021/12/15 09:11:01;;;;;;;33.53;20.50;;;;;;;8.21;100.00;102107.66;5069121;28;20054;-60
2021/12/15 09:13:30;;;;;;;34.25;22.80;;;;;;;8.14;100.00;102103.47;5066341;28;20102;-59
2021/12/15 09:16:05;;;;;;;34.20;22.83;;;;;;;8.13;100.00;102107.84;5072329;28;20052;-57
2021/12/15 09:18:34;;;;;;;36.60;23.92;;;;;;;8.17;100.00;102115.66;5067768;28;20041;-60
2021/12/15 09:21:02;;;;;;;37.33;23.33;;;;;;;8.19;100.00;102109.44;5068876;28;20082;-61
2021/12/15 09:23:30;;;;;;;35.13;22.73;;;;;;;8.23;100.00;102118.97;5069833;28;20622;-59
2021/12/15 09:25:57;;;;;;;36.20;22.38;;;;;;;8.27;100.00;102115.38;5068300;28;20603;-61
2021/12/15 09:28:25;;;;;;;35.38;21.70;;;;;;;8.34;100.00;102119.56;5062299;28;20722;-60
2021/12/15 09:30:54;;;;;;;34.20;21.70;;;;;;;8.27;100.00;102111.88;5074825;28;20135;-60
2021/12/15 09:33:25;;;;;;;38.28;23.23;;;;;;;8.17;100.00;102119.13;5072016;28;20080;-61
2021/12/15 09:35:52;;;;;;;52.30;32.35;;;;;;;8.16;100.00;102119.19;5064148;28;20058;-59
2021/12/15 09:38:21;;;;;;;57.05;37.25;;;;;;;8.32;100.00;102116.13;5071192;28;20134;-61
2021/12/15 09:40:54;;;;;;;34.35;21.50;;;;;;;8.35;100.00;102123.06;5070671;28;20064;-61
2021/12/15 09:43:26;;;;;;;34.58;21.17;;;;;;;8.33;100.00;102110.00;5077594;28;20412;-61
2021/12/15 09:57:16;;;;;;;30.60;19.45;;;;;;;8.24;100.00;102093.59;5072741;28;19920;-60
2021/12/15 10:02:46;;;;;;;36.55;21.35;;;;;;;8.22;100.00;102100.66;5075185;28;20849;-59
2021/12/15 10:05:29;;;;;;;32.83;21.23;;;;;;;8.26;100.00;102103.16;5064651;28;20098;-60
2021/12/15 10:11:44;;;;;;;36.78;21.52;;;;;;;8.20;100.00;102099.84;5074434;28;20052;-60
2021/12/15 10:19:27;;;;;;;33.22;22.05;;;;;;;8.32;100.00;102099.50;5068411;28;20135;-60
2021/12/15 10:22:09;;;;;;;35.90;21.77;;;;;;;8.29;100.00;102087.34;5065860;28;20128;-58
2021/12/15 10:24:52;;;;;;;31.83;21.10;;;;;;;8.32;100.00;102087.25;5065391;28;20049;-59
2021/12/15 10:27:39;;;;;;;35.75;22.33;;;;;;;8.34;100.00;102082.84;5056067;28;20137;-57
2021/12/15 10:30:27;;;;;;;40.92;27.38;;;;;;;8.62;100.00;102093.47;5067215;28;20127;-55
2021/12/15 10:33:17;;;;;;;38.63;24.73;;;;;;;8.68;100.00;102088.97;5069173;28;20062;-59
2021/12/15 10:35:51;;;;;;;31.83;21.23;;;;;;;8.58;100.00;102086.59;5064193;28;20500;-60
2021/12/15 10:38:31;;;;;;;29.60;20.13;;;;;;;8.51;100.00;102082.44;5077386;28;20066;-60
2021/12/15 10:41:07;;;;;;;34.95;18.85;;;;;;;8.51;100.00;102084.16;5074774;28;20068;-59
2021/12/15 10:44:08;;;;;;;30.00;19.63;;;;;;;8.58;100.00;102086.59;5079614;28;20420;-60
2021/12/15 10:46:39;;;;;;;29.10;19.73;;;;;;;8.51;100.00;102085.06;5064293;28;20062;-59
2021/12/15 10:49:14;;;;;;;32.88;20.58;;;;;;;8.53;100.00;102088.47;5068583;28;20505;-60
2021/12/15 10:51:49;;;;;;;28.27;19.00;;;;;;;8.48;100.00;102090.38;5069218;28;20051;-58
2021/12/15 10:54:29;;;;;;;28.70;20.25;;;;;;;8.47;100.00;102093.06;5071466;28;20065;-60
2021/12/15 10:57:34;;;;;;;26.77;18.67;;;;;;;8.49;100.00;102092.09;5074237;28;20131;-59
2021/12/15 11:00:08;;;;;;;28.40;19.45;;;;;;;8.47;100.00;102086.03;5022834;28;20159;-59
2021/12/15 11:02:38;;;;;;;26.45;17.20;;;;;;;8.47;100.00;102095.69;5065047;28;20091;-60
2021/12/15 11:05:15;;;;;;;28.15;18.00;;;;;;;8.55;100.00;102099.78;5069221;28;20059;-59
2021/12/15 11:07:47;;;;;;;28.48;18.50;;;;;;;8.57;100.00;102094.53;5068291;28;20065;-61
2021/12/15 11:10:22;;;;;;;29.42;19.08;;;;;;;8.56;100.00;102101.53;5071487;28;20054;-60
2021/12/15 11:12:53;;;;;;;;;;;;;;;8.58;100.00;102088.34;5072035;28;20053;-58
2021/12/15 11:15:43;;;;;;;26.92;17.98;;;;;;;8.59;100.00;102090.06;5065184;28;20239;-60
2021/12/15 11:18:19;;;;;;;29.48;18.85;;;;;;;8.61;100.00;102089.16;5068217;28;20048;-60
2021/12/15 11:20:48;;;;;;;27.25;18.33;;;;;;;8.65;100.00;102084.69;5068639;28;20127;-59
2021/12/15 11:23:17;;;;;;;27.25;17.70;;;;;;;8.59;100.00;102085.69;5067788;28;20144;-60
2021/12/15 11:26:00;;;;;;;27.20;18.52;;;;;;;8.62;100.00;102088.22;5067128;28;20630;-60
2021/12/15 11:28:42;;;;;;;27.33;17.67;;;;;;;8.74;100.00;102088.81;5064061;28;20048;-60
2021/12/15 11:31:11;;;;;;;25.90;18.27;;;;;;;8.79;100.00;102079.91;5070239;28;20516;-60
2021/12/15 11:33:45;;;;;;;21.83;16.17;;;;;;;8.85;100.00;102082.34;5069634;28;20052;-58
2021/12/15 11:36:18;;;;;;;23.92;16.05;;;;;;;8.95;100.00;102087.31;5067487;28;20056;-60
2021/12/15 11:38:53;;;;;;;24.70;17.60;;;;;;;8.91;100.00;102083.91;5072038;28;20132;-60
2021/12/15 11:41:31;;;;;;;26.67;17.13;;;;;;;8.84;100.00;102082.38;5064147;28;20058;-59
2021/12/15 11:44:01;;;;;;;24.77;15.85;;;;;;;8.84;100.00;102074.50;5067372;28;20075;-59
2021/12/15 11:46:58;;;;;;;24.30;16.38;;;;;;;8.83;100.00;102073.66;5067751;28;20524;-60
2021/12/15 11:49:30;;;;;;;24.33;15.25;;;;;;;8.83;100.00;102076.28;5060056;28;20088;-59
2021/12/15 11:52:04;;;;;;;22.38;16.02;;;;;;;8.85;100.00;102074.47;5074819;28;20143;-61
2021/12/15 11:54:35;;;;;;;21.15;14.98;;;;;;;8.90;100.00;102079.56;5063748;28;20274;-60
2021/12/15 11:57:14;;;;;;;23.30;15.68;;;;;;;8.97;100.00;102080.28;5060797;28;20168;-59
2021/12/15 11:59:45;;;;;;;20.90;15.10;;;;;;;9.07;100.00;102072.06;5062859;28;20129;-60
2021/12/15 12:02:14;;;;;;;24.48;15.50;;;;;;;9.13;100.00;102065.78;5071124;28;20059;-60
2021/12/15 12:05:04;;;;;;;20.60;14.57;;;;;;;9.26;100.00;102055.75;5065195;28;20088;-59
2021/12/15 12:07:43;;;;;;;20.02;14.75;;;;;;;9.40;100.00;102061.44;5062615;28;20141;-61
2021/12/15 12:10:20;;;;;;;19.48;13.70;;;;;;;9.39;100.00;102051.84;5073567;28;20048;-62
2021/12/15 12:12:53;;;;;;;19.33;12.20;;;;;;;9.37;100.00;102059.78;5064262;28;20063;-61
2021/12/15 12:15:24;;;;;;;19.15;12.75;;;;;;;9.34;100.00;102048.50;5071763;28;20052;-60
2021/12/15 12:17:55;;;;;;;15.32;11.80;;;;;;;9.36;100.00;102038.78;5071835;28;20076;-59
2021/12/15 12:20:30;;;;;;;18.75;13.07;;;;;;;9.57;100.00;102030.22;5060687;28;20669;-59
2021/12/15 12:22:58;;;;;;;17.42;12.45;;;;;;;9.84;100.00;102027.59;5068506;28;20090;-62
2021/12/15 12:25:29;;;;;;;14.57;11.48;;;;;;;10.02;100.00;102034.88;5071588;28;20052;-58
2021/12/15 12:27:58;;;;;;;16.52;12.43;;;;;;;9.90;100.00;102054.56;5080250;28;20056;-62
2021/12/15 12:30:31;;;;;;;19.23;12.05;;;;;;;9.75;100.00;102043.69;5072345;28;20136;-60
2021/12/15 12:32:59;;;;;;;15.65;11.40;;;;;;;9.65;100.00;102048.41;5074120;28;20128;-60
2021/12/15 12:35:31;;;;;;;16.70;11.73;;;;;;;9.53;100.00;102054.91;5068394;28;20578;-60